Arundel, Maine
Current Conditions -  °F | °C
As of 5:35 AM on Saturday 01 Nov 2014 (Local Time) from KSFM Reporting Station
Overcast Overcast  
Wind Chill: 32°   Ceiling: 3700
Heat Index: 39°   Visibility: 10mi
Dew Point: 30°   Wind: 10mph
Humidity: 70%   Direction: 360°N
Pressure: 29.94"   Gusts: 16mph
Location:  43.4079°N, 70.4735°W
Report Text: KSFM 010935Z AUTO 36009G14KT 10SM FEW025 BKN037 OVC044 04/M01 A2994 RMK AO1
Loading
Personal Weather Stations






























Interactive Weather Map New forecast layout! Learn more

10-Day Weather Forecast

Advertisements
Track Severe Weather on mobile